Time;durP1;ratioP1;P1;durP2;ratioP2;P2;SDS_P1;SDS_P2;PMS_P1;PMS_P2;Temp;Humidity;BMP_temperature;BMP_pressure;BME280_temperature;BME280_humidity;BME280_pressure;Samples;Min_cycle;Max_cycle;Signal;HPM_P1;HPM_P2
2024/01/15 00:02:03;;;;;;;22.07;7.73;;;-2.20;78.60;;;-0.41;57.85;96573.75;5072732;28;20033;-49
2024/01/15 00:04:30;;;;;;;16.60;6.93;;;-2.30;79.10;;;-0.64;58.44;96576.38;5070760;28;20056;-52
2024/01/15 00:06:58;;;;;;;17.57;7.50;;;-2.40;79.70;;;-0.60;58.47;96574.38;5071918;28;20047;-49
2024/01/15 00:09:27;;;;;;;16.97;7.13;;;-2.40;79.70;;;-0.55;58.32;96569.59;5072641;28;20052;-48
2024/01/15 00:11:55;;;;;;;15.10;6.77;;;-2.40;79.60;;;-0.55;58.37;96568.78;5072642;28;20427;-50
2024/01/15 00:14:23;;;;;;;13.87;7.07;;;-2.40;80.10;;;-0.52;58.64;96572.00;5072340;28;20056;-49
2024/01/15 00:16:51;;;;;;;15.57;6.23;;;-2.30;80.30;;;-0.57;58.64;96570.69;5072801;28;20036;-51
2024/01/15 00:19:18;;;;;;;14.73;6.63;;;-2.40;80.00;;;-0.50;58.95;96570.09;5072628;28;20044;-49
2024/01/15 00:21:47;;;;;;;18.10;7.07;;;-2.30;79.80;;;-0.47;58.54;96566.41;5072281;28;20040;-50
2024/01/15 00:24:14;;;;;;;16.63;7.37;;;-2.30;80.20;;;-0.50;58.58;96559.63;5072416;28;20044;-47
2024/01/15 00:26:42;;;;;;;19.37;7.23;;;-2.40;80.00;;;-0.43;58.77;96562.59;5072527;28;20049;-47
2024/01/15 00:29:10;;;;;;;17.23;7.47;;;-2.30;79.90;;;-0.43;58.90;96549.50;5070876;28;20056;-51
2024/01/15 00:31:38;;;;;;;14.03;6.23;;;-2.30;80.90;;;-0.54;59.58;96558.22;5063940;28;20067;-51
2024/01/15 00:34:05;;;;;;;16.17;6.80;;;-2.40;80.70;;;-0.47;58.98;96555.94;5070474;28;20052;-49
2024/01/15 00:36:33;;;;;;;17.40;7.13;;;-2.30;81.20;;;-0.51;59.62;96562.34;5072259;28;20066;-48
2024/01/15 00:39:01;;;;;;;16.77;6.90;;;-2.20;80.60;;;-0.38;59.28;96563.06;5072010;28;20040;-49
2024/01/15 00:41:29;;;;;;;18.00;7.23;;;-2.10;80.90;;;-0.35;59.14;96559.38;5070626;28;20047;-49
2024/01/15 00:43:57;;;;;;;13.20;6.43;;;-2.10;81.40;;;-0.38;59.49;96552.63;5072106;28;20032;-48
2024/01/15 00:46:24;;;;;;;18.77;8.37;;;-2.00;81.00;;;-0.30;59.79;96559.84;5071142;28;20634;-50
2024/01/15 00:48:52;;;;;;;20.17;6.73;;;-2.00;81.00;;;-0.30;59.80;96562.47;5072240;28;20037;-50
2024/01/15 00:51:20;;;;;;;12.63;6.17;;;-2.00;81.00;;;-0.27;59.99;96544.75;5071650;28;20472;-48
2024/01/15 00:53:48;;;;;;;13.60;8.73;;;-1.90;80.70;;;-0.28;59.30;96543.09;5071793;28;20048;-49
2024/01/15 00:56:15;;;;;;;24.37;8.20;;;-1.90;80.60;;;-0.21;59.54;96548.69;5070381;28;20397;-48
2024/01/15 00:58:43;;;;;;;16.57;7.77;;;-1.80;80.30;;;-0.21;59.41;96549.50;5072045;28;20041;-53
2024/01/15 01:01:11;;;;;;;19.97;8.53;;;-1.80;80.10;;;-0.08;59.92;96540.66;5070263;28;20447;-50
2024/01/15 01:03:38;;;;;;;16.53;7.17;;;-1.70;79.80;;;-0.13;59.56;96551.50;5071588;28;20039;-47
2024/01/15 01:06:06;;;;;;;17.63;7.80;;;-1.70;80.20;;;-0.04;59.58;96556.03;5071065;28;20047;-51
2024/01/15 01:08:34;;;;;;;14.73;7.57;;;-1.60;79.80;;;0.04;59.87;96549.31;5071363;28;20049;-50
2024/01/15 01:11:01;;;;;;;16.53;6.93;;;-1.50;78.80;;;0.05;59.18;96548.38;5069665;28;20346;-47
2024/01/15 01:13:29;;;;;;;17.80;6.57;;;-1.50;79.20;;;0.04;58.85;96549.31;5071488;28;20040;-49
2024/01/15 01:15:56;;;;;;;18.53;7.40;;;-1.50;78.50;;;0.14;58.97;96551.09;5071374;28;20039;-47
2024/01/15 01:18:24;;;;;;;15.17;7.47;;;-1.50;79.30;;;0.13;59.28;96546.81;5071554;28;20053;-47
2024/01/15 01:20:52;;;;;;;16.77;7.17;;;-1.50;78.90;;;0.22;59.48;96547.03;5071171;28;20043;-50
2024/01/15 01:23:20;;;;;;;18.90;7.30;;;-1.40;78.70;;;0.28;58.89;96538.69;5071164;28;20389;-47
2024/01/15 01:25:47;;;;;;;16.80;7.23;;;-1.40;78.60;;;0.33;59.03;96532.13;5052973;28;20052;-51
2024/01/15 01:28:15;;;;;;;17.47;8.37;;;-1.30;78.30;;;0.37;58.45;96533.53;5071433;28;20044;-47
2024/01/15 01:30:43;;;;;;;13.80;6.90;;;-1.30;78.10;;;0.45;58.74;96530.28;5063175;28;20046;-50
2024/01/15 01:33:11;;;;;;;16.80;6.97;;;-1.30;78.30;;;0.46;58.33;96531.94;5070904;28;20419;-52
2024/01/15 01:35:38;;;;;;;20.60;7.70;;;-1.30;77.70;;;0.48;58.68;96535.25;5071001;28;20048;-48
2024/01/15 01:38:06;;;;;;;17.23;7.37;;;-1.30;78.00;;;0.49;58.51;96533.50;5070801;28;20116;-47
2024/01/15 01:40:34;;;;;;;18.57;8.17;;;-1.30;77.10;;;0.52;58.71;96543.69;5071182;28;20494;-49
2024/01/15 01:43:04;;;;;;;15.73;6.13;;;-1.30;77.90;;;0.54;57.96;96541.78;5070740;28;20044;-47
2024/01/15 01:45:32;;;;;;;15.50;6.77;;;-1.20;77.40;;;0.48;58.77;96531.81;5070805;28;20052;-48
2024/01/15 01:48:01;;;;;;;20.63;7.80;;;-1.20;76.30;;;0.55;58.81;96539.03;5069382;28;20526;-48
2024/01/15 01:50:31;;;;;;;15.77;6.40;;;-1.20;77.20;;;0.58;57.83;96530.94;5071047;28;20044;-49
2024/01/15 01:53:03;;;;;;;16.73;6.47;;;-1.20;77.30;;;0.63;58.25;96529.72;5070841;28;20063;-51
2024/01/15 01:55:33;;;;;;;14.13;6.50;;;-1.10;77.10;;;0.64;57.67;96531.38;5070614;28;20488;-47
2024/01/15 01:58:03;;;;;;;15.03;6.63;;;-1.10;76.90;;;0.68;57.81;96532.78;5070166;28;20049;-48
2024/01/15 02:00:32;;;;;;;12.97;5.63;;;-1.10;76.80;;;0.68;57.79;96540.63;5067996;28;20496;-49
2024/01/15 02:03:00;;;;;;;12.70;6.00;;;-1.10;76.10;;;0.58;58.36;96533.56;5068520;28;20044;-48
2024/01/15 02:05:28;;;;;;;16.10;6.20;;;-1.10;76.00;;;0.60;57.55;96528.19;5069089;28;20412;-49
2024/01/15 02:07:56;;;;;;;15.97;6.27;;;-1.20;76.90;;;0.64;57.56;96527.00;5071041;28;20056;-48
2024/01/15 02:10:24;;;;;;;16.27;7.10;;;-1.10;76.90;;;0.69;57.58;96534.47;5071170;28;20524;-48
2024/01/15 02:12:51;;;;;;;15.07;7.17;;;-1.00;76.30;;;0.69;58.21;96531.84;5068567;28;20527;-47
2024/01/15 02:15:19;;;;;;;14.57;5.73;;;-1.00;76.20;;;0.64;58.08;96524.38;5069288;28;20420;-48
2024/01/15 02:18:05;;;;;;;13.43;6.10;;;-1.10;75.70;;;0.69;58.13;96523.97;5064087;28;20074;-47
2024/01/15 02:20:33;;;;;;;15.37;6.80;;;-1.00;76.00;;;0.72;57.51;96526.34;5070629;28;20041;-47
2024/01/15 02:23:06;;;;;;;15.50;6.77;;;-1.00;75.80;;;0.73;58.21;96528.81;5070494;28;20412;-47
2024/01/15 02:25:34;;;;;;;13.80;6.00;;;-1.00;76.00;;;0.68;57.61;96528.41;5070642;28;20397;-47
2024/01/15 02:28:02;;;;;;;16.43;6.07;;;-1.00;75.80;;;0.71;57.17;96520.25;5069775;28;20415;-48
2024/01/15 02:30:31;;;;;;;12.83;5.97;;;-1.00;76.20;;;0.73;57.63;96520.16;5069541;28;20059;-48
2024/01/15 02:32:59;;;;;;;12.73;5.73;;;-1.00;75.90;;;0.74;57.11;96520.03;5070022;28;20051;-47
2024/01/15 02:35:26;;;;;;;13.57;6.37;;;-1.00;75.60;;;0.78;57.58;96517.97;5070473;28;20052;-49
2024/01/15 02:37:54;;;;;;;16.00;6.37;;;-1.00;75.90;;;0.83;58.17;96523.66;5070797;28;20413;-48
2024/01/15 02:40:21;;;;;;;14.17;6.00;;;-0.90;75.80;;;0.88;57.33;96520.66;5070464;28;20048;-46
2024/01/15 02:42:49;;;;;;;17.60;6.13;;;-0.90;75.70;;;0.91;57.52;96518.63;5062392;28;20036;-48
2024/01/15 02:45:17;;;;;;;14.37;6.63;;;-0.90;75.50;;;0.88;57.63;96515.41;5070742;28;20323;-51
2024/01/15 02:47:45;;;;;;;17.10;5.90;;;-0.90;75.40;;;0.90;57.86;96514.31;5070656;28;20051;-47
2024/01/15 02:50:13;;;;;;;12.40;6.50;;;-0.90;75.50;;;0.91;57.18;96517.75;5070764;28;20037;-49
2024/01/15 02:52:42;;;;;;;16.63;6.97;;;-0.90;75.40;;;0.93;57.68;96521.09;5070021;28;20044;-51
2024/01/15 02:55:09;;;;;;;14.00;5.83;;;-0.90;74.90;;;0.89;57.42;96511.81;5070046;28;20036;-48
2024/01/15 02:57:37;;;;;;;13.47;6.27;;;-0.90;75.50;;;0.85;56.96;96513.03;5070308;28;20071;-48
2024/01/15 03:00:07;;;;;;;13.83;6.97;;;-1.00;75.80;;;0.80;56.95;96504.75;5070094;28;20067;-48
2024/01/15 03:02:39;;;;;;;15.00;6.50;;;-1.00;75.50;;;0.79;57.76;96506.53;5069553;28;20041;-51
2024/01/15 03:05:10;;;;;;;11.53;5.33;;;-1.00;75.70;;;0.83;57.28;96509.72;5068950;28;20037;-48
2024/01/15 03:07:38;;;;;;;9.90;5.10;;;-1.00;75.50;;;0.74;57.28;96514.78;5060521;28;20041;-48
2024/01/15 03:10:07;;;;;;;12.80;5.43;;;-1.10;74.70;;;0.74;57.01;96508.72;5069165;28;20052;-50
2024/01/15 03:12:34;;;;;;;16.23;5.87;;;-1.10;76.20;;;0.80;57.62;96502.97;5069954;28;20407;-50
2024/01/15 03:15:02;;;;;;;12.57;5.67;;;-1.00;76.00;;;0.77;57.40;96504.03;5070181;28;20421;-48
2024/01/15 03:17:30;;;;;;;11.60;5.33;;;-1.10;75.20;;;0.80;57.01;96513.44;5070045;28;20056;-49
2024/01/15 03:19:58;;;;;;;13.17;5.70;;;-1.10;76.40;;;0.79;57.32;96503.91;5069065;28;20045;-48
2024/01/15 03:22:25;;;;;;;14.23;5.13;;;-1.10;75.70;;;0.80;57.22;96499.53;5068103;28;20045;-47
2024/01/15 03:24:53;;;;;;;10.60;5.97;;;-1.10;76.50;;;0.85;57.27;96498.16;5064772;28;20037;-48
2024/01/15 03:27:21;;;;;;;11.93;5.70;;;-1.00;75.90;;;0.92;57.19;96501.09;5073888;28;20059;-49
2024/01/15 03:29:49;;;;;;;14.13;5.57;;;-0.90;76.00;;;0.93;56.74;96489.63;5073439;28;20075;-49
2024/01/15 03:32:17;;;;;;;12.60;5.90;;;-0.90;75.10;;;0.86;57.15;96494.59;5071601;28;20063;-48
2024/01/15 03:34:44;;;;;;;13.20;5.67;;;-0.90;74.40;;;0.90;56.90;96489.91;5072228;28;20492;-49
2024/01/15 03:37:12;;;;;;;11.47;5.50;;;-0.80;75.10;;;0.84;57.32;96478.16;5072148;28;20040;-48
2024/01/15 03:39:40;;;;;;;11.87;5.17;;;-0.90;74.70;;;0.91;56.80;96478.47;5072902;28;20048;-48
2024/01/15 03:42:07;;;;;;;14.70;5.20;;;-0.80;75.30;;;1.00;57.08;96490.78;5073291;28;20043;-48
2024/01/15 03:44:35;;;;;;;15.13;6.10;;;-0.70;75.20;;;1.00;56.88;96489.97;5073141;28;20067;-49
2024/01/15 03:47:03;;;;;;;16.87;5.77;;;-0.60;74.50;;;1.01;56.69;96478.50;5073360;28;20044;-48
2024/01/15 03:49:30;;;;;;;14.53;4.47;;;-0.60;74.30;;;0.98;56.69;96469.13;5071529;28;20123;-48
2024/01/15 03:51:58;;;;;;;8.27;4.77;;;-0.60;74.00;;;1.01;56.93;96474.13;5071856;28;20045;-48
2024/01/15 03:54:26;;;;;;;9.77;4.93;;;-0.60;74.40;;;1.08;56.87;96480.47;5072982;28;20041;-47
2024/01/15 03:56:54;;;;;;;13.83;5.60;;;-0.50;74.30;;;1.14;56.89;96472.13;5072995;28;20036;-48
2024/01/15 03:59:21;;;;;;;11.23;4.70;;;-0.50;74.50;;;1.12;57.13;96467.94;5073172;28;20044;-48
2024/01/15 04:01:53;;;;;;;8.83;4.60;;;-0.50;73.70;;;1.14;56.82;96466.88;5072749;28;20110;-48
2024/01/15 04:04:21;;;;;;;10.27;4.90;;;-0.40;74.10;;;1.13;56.78;96459.97;5073194;28;20049;-49
2024/01/15 04:06:48;;;;;;;9.00;4.87;;;-0.50;74.20;;;1.17;56.88;96456.09;5072441;28;20052;-49
2024/01/15 04:09:16;;;;;;;8.73;5.07;;;-0.50;74.90;;;1.21;57.08;96454.06;5072991;28;20402;-48
2024/01/15 04:11:44;;;;;;;7.97;4.40;;;-0.40;74.00;;;1.24;56.57;96456.44;5072416;28;20057;-48
2024/01/15 04:14:12;;;;;;;7.93;4.33;;;-0.40;73.40;;;1.23;56.98;96452.13;5072856;28;20089;-52
2024/01/15 04:16:39;;;;;;;11.87;5.03;;;-0.40;73.50;;;1.12;56.29;96452.22;5072444;28;20041;-48
2024/01/15 04:19:08;;;;;;;8.03;4.47;;;-0.40;73.50;;;1.15;56.58;96457.22;5071501;28;20055;-47
2024/01/15 04:21:35;;;;;;;11.47;4.30;;;-0.40;73.70;;;1.23;56.61;96446.88;5072274;28;20052;-47
2024/01/15 04:24:03;;;;;;;5.47;3.43;;;-0.40;73.40;;;1.18;56.63;96446.44;5072542;28;20385;-48
2024/01/15 04:26:31;;;;;;;9.90;5.10;;;-0.40;72.50;;;1.21;56.88;96459.31;5072349;28;20044;-49
2024/01/15 04:28:59;;;;;;;10.30;4.50;;;-0.40;73.20;;;1.21;56.34;96443.56;5072576;28;20047;-47
2024/01/15 04:31:27;;;;;;;6.03;3.30;;;-0.30;72.60;;;1.23;56.98;96428.53;5072181;28;20050;-49
2024/01/15 04:33:55;;;;;;;8.83;3.77;;;-0.30;72.80;;;1.30;56.53;96434.06;5071694;28;20071;-53
2024/01/15 04:36:23;;;;;;;6.53;4.00;;;-0.30;72.70;;;1.27;56.18;96437.78;5087537;28;20048;-54
2024/01/15 04:38:51;;;;;;;7.53;4.17;;;-0.30;72.70;;;1.30;56.41;96434.91;5072284;28;20236;-50
2024/01/15 04:41:18;;;;;;;8.73;3.87;;;-0.20;71.80;;;1.31;55.82;96449.66;5071854;28;20048;-47
2024/01/15 04:43:46;;;;;;;8.33;4.37;;;-0.30;72.30;;;1.27;56.10;96452.69;5071956;28;20043;-47
2024/01/15 04:46:14;;;;;;;5.50;3.63;;;-0.30;72.60;;;1.34;56.33;96452.03;5072148;28;20043;-49
2024/01/15 04:48:42;;;;;;;9.90;4.60;;;-0.30;72.70;;;1.42;56.38;96453.16;5072188;28;20051;-48
2024/01/15 04:51:10;;;;;;;7.53;4.10;;;-0.20;72.40;;;1.47;55.96;96448.34;5071816;28;20488;-47
2024/01/15 04:53:38;;;;;;;8.23;3.97;;;-0.20;72.40;;;1.49;55.78;96447.25;5071509;28;20048;-48
2024/01/15 04:56:05;;;;;;;7.40;4.43;;;-0.20;72.30;;;1.46;55.79;96451.94;5070365;28;20040;-49
2024/01/15 04:58:33;;;;;;;10.70;4.20;;;-0.20;71.70;;;1.47;56.27;96454.41;5071794;28;20051;-49
2024/01/15 05:01:01;;;;;;;9.13;4.20;;;-0.20;72.10;;;1.54;55.72;96447.66;5068909;28;20052;-50
2024/01/15 05:03:29;;;;;;;7.13;3.83;;;-0.20;72.20;;;1.57;55.76;96439.53;5070823;28;20041;-51
2024/01/15 05:05:57;;;;;;;6.67;3.73;;;-0.20;71.60;;;1.55;55.47;96440.63;5071594;28;20052;-48
2024/01/15 05:08:25;;;;;;;5.07;3.40;;;-0.20;71.50;;;1.56;55.96;96437.88;5071804;28;20036;-48
2024/01/15 05:10:52;;;;;;;10.03;4.83;;;-0.20;71.20;;;1.58;55.63;96430.69;5069721;28;20055;-50
2024/01/15 05:13:20;;;;;;;9.17;3.73;;;-0.20;71.50;;;1.52;55.04;96426.00;5071400;28;20056;-49
2024/01/15 05:15:47;;;;;;;7.03;3.37;;;-0.20;71.10;;;1.53;55.41;96416.31;5071151;28;20060;-52
2024/01/15 05:18:16;;;;;;;7.53;3.10;;;-0.20;71.70;;;1.59;55.67;96418.44;5071272;28;20434;-51
2024/01/15 05:20:44;;;;;;;6.13;3.20;;;-0.10;71.30;;;1.63;55.67;96429.44;5071464;28;20422;-48
2024/01/15 05:23:12;;;;;;;8.83;4.27;;;-0.10;71.10;;;1.67;55.58;96415.13;5071219;28;20032;-53
2024/01/15 05:25:40;;;;;;;5.30;2.80;;;0.00;70.90;;;1.67;55.25;96413.31;5071305;28;20584;-50
2024/01/15 05:28:07;;;;;;;6.30;3.60;;;0.00;71.00;;;1.66;55.33;96416.06;5069750;28;20416;-50
2024/01/15 05:30:35;;;;;;;7.03;3.20;;;0.00;70.10;;;1.54;55.28;96420.63;5071176;28;20422;-51
2024/01/15 05:33:03;;;;;;;6.17;3.33;;;-0.10;70.60;;;1.58;55.51;96428.06;5070362;28;20045;-49
2024/01/15 05:35:31;;;;;;;7.87;3.77;;;-0.20;71.20;;;1.51;55.47;96428.75;5071221;28;20036;-52
2024/01/15 05:37:59;;;;;;;7.93;4.17;;;-0.20;70.70;;;1.56;55.25;96435.25;5071131;28;20052;-52
2024/01/15 05:40:26;;;;;;;6.80;3.87;;;-0.20;71.40;;;1.65;55.17;96436.25;5070973;28;20415;-52
2024/01/15 05:42:54;;;;;;;6.17;3.27;;;-0.10;71.30;;;1.70;55.30;96435.81;5070679;28;20416;-50
2024/01/15 05:45:22;;;;;;;7.17;4.10;;;0.00;70.90;;;1.75;55.47;96431.00;5070861;28;20496;-48
2024/01/15 05:47:49;;;;;;;7.17;3.63;;;0.00;70.80;;;1.80;55.58;96435.84;5070519;28;20055;-49
2024/01/15 05:50:17;;;;;;;7.57;3.17;;;0.00;70.70;;;1.84;54.88;96440.69;5070891;28;20044;-50
2024/01/15 05:52:45;;;;;;;5.93;3.30;;;0.10;70.10;;;1.86;54.97;96433.50;5070588;28;20041;-49
2024/01/15 05:55:13;;;;;;;7.13;3.93;;;0.10;71.00;;;1.91;54.99;96433.09;5071087;28;20074;-50
2024/01/15 05:57:41;;;;;;;4.47;2.97;;;0.10;70.90;;;1.92;55.34;96432.13;5071052;28;20408;-48
2024/01/15 06:00:09;;;;;;;5.40;3.60;;;0.20;70.50;;;1.91;54.54;96433.91;5062878;28;20040;-48
2024/01/15 06:02:39;;;;;;;5.73;3.13;;;0.10;70.30;;;1.93;54.97;96420.66;5070358;28;20499;-48
2024/01/15 06:05:07;;;;;;;5.77;3.20;;;0.20;70.40;;;1.93;55.46;96412.78;5070612;28;20041;-51
2024/01/15 06:07:36;;;;;;;5.90;3.20;;;0.20;70.10;;;1.96;54.60;96415.97;5069989;28;20044;-49
2024/01/15 06:10:04;;;;;;;7.23;2.83;;;0.20;70.10;;;1.95;55.08;96408.22;5070625;28;20052;-50
2024/01/15 06:12:33;;;;;;;3.53;2.63;;;0.20;70.10;;;1.97;54.70;96406.28;5070443;28;20492;-55
2024/01/15 06:15:01;;;;;;;8.23;3.93;;;0.20;70.30;;;1.98;54.64;96400.09;5070776;28;20052;-51
2024/01/15 06:17:28;;;;;;;6.57;3.23;;;0.20;70.00;;;1.99;55.15;96396.47;5070823;28;20051;-52
2024/01/15 06:19:57;;;;;;;4.97;2.53;;;0.20;70.10;;;2.00;54.72;96395.53;5070600;28;20057;-51
2024/01/15 06:22:24;;;;;;;6.07;3.03;;;0.20;69.50;;;2.01;55.01;96393.72;5070433;28;20071;-52
2024/01/15 06:24:52;;;;;;;7.97;3.27;;;0.20;70.50;;;2.00;55.03;96395.53;5070438;28;20503;-53
2024/01/15 06:27:20;;;;;;;7.37;3.53;;;0.20;70.00;;;2.02;54.63;96392.78;5070827;28;20304;-48
2024/01/15 06:29:48;;;;;;;6.93;3.63;;;0.20;70.60;;;2.03;54.89;96397.03;5070497;28;20049;-53
2024/01/15 06:32:17;;;;;;;7.20;4.53;;;0.20;70.30;;;2.00;54.46;96395.53;5070454;28;20048;-51
2024/01/15 06:34:45;;;;;;;6.07;3.70;;;0.10;70.60;;;2.00;54.42;96399.94;5070328;28;20051;-50
2024/01/15 06:37:13;;;;;;;9.50;3.93;;;0.10;70.50;;;1.98;54.69;96392.22;5085970;28;20412;-52
2024/01/15 06:39:40;;;;;;;8.40;3.73;;;0.10;70.60;;;1.98;54.58;96394.84;5070652;28;20044;-53
2024/01/15 06:42:08;;;;;;;6.73;4.03;;;0.10;70.50;;;2.00;54.57;96392.06;5069856;28;20146;-50
2024/01/15 06:44:36;;;;;;;7.70;3.77;;;0.20;70.00;;;1.99;54.43;96396.47;5070122;28;20036;-54
2024/01/15 06:47:05;;;;;;;7.17;4.00;;;0.20;70.20;;;1.98;54.90;96392.22;5070575;28;20045;-52
2024/01/15 06:49:33;;;;;;;8.03;3.47;;;0.20;70.20;;;2.01;54.74;96406.84;5070540;28;20044;-48
2024/01/15 06:52:00;;;;;;;7.60;3.30;;;0.20;70.20;;;1.96;54.56;96402.03;5070129;28;20060;-51
2024/01/15 06:54:28;;;;;;;7.10;3.83;;;0.10;69.30;;;1.94;54.60;96401.34;5069252;28;20049;-53
2024/01/15 06:56:56;;;;;;;6.03;3.67;;;0.00;70.30;;;2.00;54.65;96399.94;5070236;28;20052;-48
2024/01/15 06:59:23;;;;;;;7.83;3.50;;;0.10;70.10;;;1.99;54.23;96395.66;5074525;28;20044;-49
2024/01/15 07:01:51;;;;;;;8.50;4.43;;;0.10;70.00;;;1.98;54.10;96392.22;5072604;28;20514;-50
2024/01/15 07:04:19;;;;;;;7.13;4.17;;;0.10;69.90;;;2.03;54.44;96399.66;5074342;28;20037;-52
2024/01/15 07:06:48;;;;;;;7.97;2.87;;;0.10;70.00;;;2.06;54.30;96399.41;5072196;28;20047;-51
2024/01/15 07:09:16;;;;;;;6.37;3.93;;;0.10;70.10;;;2.07;54.60;96391.34;5066082;28;20055;-49
2024/01/15 07:11:46;;;;;;;5.70;3.60;;;0.10;69.90;;;2.10;54.45;96395.53;5073998;28;20048;-51
2024/01/15 07:14:14;;;;;;;8.23;3.87;;;0.20;69.70;;;2.10;54.08;96398.97;5073820;28;20503;-48
2024/01/15 07:16:41;;;;;;;8.53;5.07;;;0.10;69.30;;;2.09;53.95;96399.91;5073899;28;20056;-52
2024/01/15 07:19:14;;;;;;;9.60;3.90;;;0.10;70.10;;;2.10;54.33;96392.91;5073927;28;20416;-50
2024/01/15 07:21:42;;;;;;;7.47;4.00;;;0.10;70.00;;;2.09;54.37;96394.66;5073561;28;20040;-53
2024/01/15 07:24:10;;;;;;;10.33;3.97;;;0.10;70.00;;;2.10;54.30;96400.78;5073420;28;20059;-50
2024/01/15 07:26:38;;;;;;;6.00;3.53;;;0.10;70.10;;;2.08;53.94;96403.53;5073578;28;20041;-50
2024/01/15 07:29:06;;;;;;;6.33;3.70;;;0.10;69.60;;;2.09;54.03;96396.47;5073723;28;20055;-55
2024/01/15 07:31:34;;;;;;;7.07;3.43;;;0.20;70.00;;;2.14;54.21;96399.53;5073461;28;20048;-50
2024/01/15 07:34:01;;;;;;;10.43;4.43;;;0.20;69.80;;;2.14;54.19;96402.16;5073335;28;20528;-51
2024/01/15 07:36:29;;;;;;;9.10;4.57;;;0.30;69.50;;;2.13;53.69;96395.22;5073578;28;20059;-49
2024/01/15 07:38:57;;;;;;;6.80;3.87;;;0.30;69.00;;;2.13;53.93;96395.22;5073061;28;20080;-51
2024/01/15 07:41:24;;;;;;;8.97;4.10;;;0.30;69.10;;;2.13;54.09;96393.44;5072948;28;20492;-50
2024/01/15 07:43:52;;;;;;;9.93;3.97;;;0.30;69.20;;;2.14;53.97;96391.66;5073128;28;20045;-49
2024/01/15 07:46:20;;;;;;;5.93;4.40;;;0.30;69.10;;;2.14;53.47;96402.16;5073439;28;20048;-50
2024/01/15 07:48:47;;;;;;;8.97;3.77;;;0.30;68.50;;;2.12;53.77;96402.28;5073167;28;20049;-50
2024/01/15 07:51:15;;;;;;;9.00;4.40;;;0.30;67.60;;;2.11;53.79;96399.78;5061546;28;20435;-48
2024/01/15 07:53:43;;;;;;;8.63;3.93;;;0.30;68.10;;;2.12;53.80;96404.09;5066487;28;20534;-49
2024/01/15 07:56:11;;;;;;;9.07;4.47;;;0.30;68.90;;;2.12;53.91;96399.66;5065794;28;20047;-50
2024/01/15 07:58:39;;;;;;;6.90;4.03;;;0.30;68.60;;;2.13;53.66;96396.06;5065161;28;20037;-51
2024/01/15 08:01:06;;;;;;;8.00;3.83;;;0.40;68.40;;;2.14;53.28;96407.41;5067839;28;20511;-52
2024/01/15 08:03:34;;;;;;;8.17;3.97;;;0.40;67.80;;;2.13;53.32;96416.22;5060134;28;20511;-50
2024/01/15 08:06:02;;;;;;;7.53;3.80;;;0.40;68.10;;;2.13;53.95;96406.59;5061837;28;20053;-53
2024/01/15 08:08:30;;;;;;;7.10;3.37;;;0.40;67.80;;;2.13;53.46;96413.59;5064752;28;20040;-51
2024/01/15 08:10:58;;;;;;;9.17;4.70;;;0.40;67.30;;;2.15;53.38;96417.78;5061574;28;20523;-50
2024/01/15 08:13:27;;;;;;;5.50;3.37;;;0.40;67.20;;;2.16;53.59;96413.34;5063189;28;20048;-52
2024/01/15 08:15:55;;;;;;;8.07;4.33;;;0.40;67.60;;;2.18;53.50;96419.28;5063828;28;20052;-54
2024/01/15 08:18:23;;;;;;;8.73;3.73;;;0.40;66.30;;;2.18;53.31;96406.16;5064228;28;20036;-52
2024/01/15 08:20:51;;;;;;;8.03;4.33;;;0.40;67.50;;;2.20;53.10;96412.09;5070682;28;20048;-55
2024/01/15 08:23:20;;;;;;;7.13;3.97;;;0.40;67.30;;;2.22;53.04;96409.34;5071860;28;20044;-50
2024/01/15 08:25:47;;;;;;;7.50;3.93;;;0.50;67.40;;;2.24;53.61;96407.41;5071140;28;20044;-54
2024/01/15 08:28:15;;;;;;;7.63;3.93;;;0.50;66.60;;;2.24;53.40;96408.22;5072356;28;20036;-51
2024/01/15 08:30:42;;;;;;;7.33;3.53;;;0.50;66.90;;;2.26;53.51;96406.28;5072525;28;20048;-51
2024/01/15 08:33:10;;;;;;;11.10;4.10;;;0.50;66.70;;;2.29;52.79;96403.38;5071833;28;20047;-52
2024/01/15 08:35:48;;;;;;;8.00;3.93;;;0.60;66.90;;;2.34;53.46;96401.16;5072723;28;20048;-53
2024/01/15 08:38:16;;;;;;;7.60;3.63;;;0.60;66.90;;;2.40;52.82;96396.31;5071989;28;20047;-50
2024/01/15 08:40:44;;;;;;;8.60;4.60;;;0.60;66.60;;;2.44;53.05;96409.00;5070988;28;20051;-53
2024/01/15 08:43:12;;;;;;;6.47;2.77;;;0.60;66.40;;;2.46;53.09;96403.63;5071702;28;20037;-50
2024/01/15 08:45:39;;;;;;;4.47;2.53;;;0.70;65.60;;;2.48;52.73;96405.16;5072034;28;20052;-51
2024/01/15 08:48:07;;;;;;;6.63;3.43;;;0.70;66.20;;;2.52;52.40;96401.28;5071753;28;20047;-52
2024/01/15 08:50:35;;;;;;;6.57;3.30;;;0.70;65.60;;;2.58;52.89;96391.16;5071969;28;20052;-50
2024/01/15 08:53:03;;;;;;;6.47;3.90;;;0.80;66.00;;;2.63;52.60;96405.53;5070995;28;20067;-50
2024/01/15 08:55:31;;;;;;;7.63;3.73;;;0.80;65.80;;;2.69;52.87;96407.56;5084623;28;20046;-52
2024/01/15 08:57:59;;;;;;;5.60;3.30;;;0.80;65.30;;;2.72;52.46;96398.59;5075335;28;20064;-53
2024/01/15 09:00:26;;;;;;;5.73;2.90;;;0.90;65.60;;;2.71;52.75;96403.00;5071929;28;20040;-52
2024/01/15 09:02:54;;;;;;;5.70;2.83;;;0.80;65.00;;;2.76;52.53;96406.03;5071597;28;20071;-52
2024/01/15 09:05:22;;;;;;;4.97;3.00;;;0.90;65.30;;;2.79;52.28;96404.91;5069575;28;20048;-55
2024/01/15 09:07:51;;;;;;;6.77;2.80;;;0.90;64.50;;;2.74;51.84;96394.03;5072060;28;20036;-51
2024/01/15 09:10:20;;;;;;;6.97;2.70;;;0.90;64.70;;;2.75;51.88;96393.03;5071581;28;20045;-53
2024/01/15 09:12:49;;;;;;;5.53;2.63;;;0.90;64.80;;;2.74;51.85;96389.59;5067587;28;20040;-53
2024/01/15 09:15:17;;;;;;;5.77;2.77;;;0.90;64.50;;;2.76;52.18;96384.19;5070594;28;20044;-51
2024/01/15 09:17:46;;;;;;;4.47;2.50;;;1.00;65.10;;;2.75;51.90;96386.00;5069784;28;20048;-51
2024/01/15 09:20:14;;;;;;;6.83;2.07;;;1.00;64.70;;;2.74;51.70;96379.06;5068834;28;20045;-51
2024/01/15 09:22:42;;;;;;;7.83;3.33;;;1.00;65.10;;;2.78;51.50;96376.19;5070267;28;20045;-50
2024/01/15 09:25:10;;;;;;;11.77;3.27;;;1.00;64.30;;;2.82;52.14;96370.47;5070915;28;20047;-51
2024/01/15 09:27:38;;;;;;;5.93;3.30;;;1.00;64.70;;;2.82;51.76;96377.53;5071635;28;20045;-51
2024/01/15 09:30:06;;;;;;;4.20;2.40;;;1.10;63.70;;;2.70;51.32;96382.97;5070146;28;20047;-53
2024/01/15 09:32:34;;;;;;;5.43;2.60;;;1.00;63.20;;;2.68;51.27;96384.91;5070376;28;20048;-52
2024/01/15 09:35:02;;;;;;;6.23;2.37;;;1.00;64.20;;;2.71;51.39;96384.59;5070612;28;20048;-53
2024/01/15 09:37:29;;;;;;;7.00;3.23;;;1.00;64.30;;;2.78;51.75;96377.00;5063315;28;20048;-52
2024/01/15 09:40:14;;;;;;;8.27;3.63;;;1.00;64.10;;;2.87;51.81;96381.41;5070684;28;20040;-50
2024/01/15 09:42:46;;;;;;;6.47;3.50;;;1.10;64.40;;;2.92;51.77;96376.50;5070810;28;20040;-52
2024/01/15 09:45:14;;;;;;;8.30;3.43;;;1.20;64.60;;;2.99;51.67;96379.41;5069032;28;20045;-53
2024/01/15 09:47:43;;;;;;;5.13;3.10;;;1.20;62.60;;;2.97;51.67;96381.34;5068933;28;20047;-54
2024/01/15 09:50:14;;;;;;;8.57;2.73;;;1.20;63.30;;;3.01;51.39;96377.47;5070713;28;20041;-51
2024/01/15 09:52:44;;;;;;;5.93;2.87;;;1.20;64.10;;;3.04;51.61;96366.63;5070452;28;20036;-50
2024/01/15 09:55:15;;;;;;;6.10;3.87;;;1.20;63.60;;;3.06;51.30;96364.69;5076297;28;20044;-53
2024/01/15 09:57:45;;;;;;;7.70;3.60;;;1.20;63.60;;;3.06;51.37;96361.25;5069832;28;20045;-52
2024/01/15 10:00:17;;;;;;;7.33;3.50;;;1.30;63.40;;;3.07;51.26;96361.09;5070688;28;20427;-54
2024/01/15 10:02:45;;;;;;;7.50;3.87;;;1.30;63.70;;;3.10;51.43;96352.94;5070709;28;20040;-52
2024/01/15 10:05:13;;;;;;;11.93;4.67;;;1.30;63.60;;;3.15;51.38;96357.75;5070807;28;20044;-54
2024/01/15 10:07:43;;;;;;;6.70;4.70;;;1.30;64.10;;;3.17;51.14;96352.34;5069750;28;20036;-53
2024/01/15 10:10:11;;;;;;;6.17;3.77;;;1.30;63.30;;;3.16;51.11;96354.16;5074833;28;20044;-52
2024/01/15 10:12:39;;;;;;;8.77;3.83;;;1.30;64.00;;;3.14;51.24;96351.66;5069516;28;20510;-50
2024/01/15 10:15:13;;;;;;;7.77;3.17;;;1.30;63.30;;;3.09;51.13;96339.94;5070712;28;20044;-50
2024/01/15 10:17:41;;;;;;;7.15;2.88;;;1.30;64.00;;;3.04;51.02;96342.97;5070839;28;20059;-53
2024/01/15 10:20:12;;;;;;;7.97;4.00;;;1.30;63.60;;;3.04;50.83;96336.91;5070700;28;20427;-52
2024/01/15 10:22:46;;;;;;;6.57;3.30;;;1.30;63.80;;;3.01;51.13;96337.19;5070415;28;20039;-55
2024/01/15 10:25:14;;;;;;;5.75;3.10;;;1.30;64.10;;;2.99;51.20;96326.81;5070438;28;20048;-50
2024/01/15 10:27:42;;;;;;;4.37;3.07;;;1.30;64.70;;;3.03;51.50;96322.09;5074708;28;20045;-51
2024/01/15 10:30:11;;;;;;;6.00;3.57;;;1.40;64.80;;;3.02;51.31;96320.44;5070377;28;20393;-53